Time;durP1;ratioP1;P1;durP2;ratioP2;P2;SDS_P1;SDS_P2;PMS_P1;PMS_P2;Temp;Humidity;BMP_temperature;BMP_pressure;BME280_temperature;BME280_humidity;BME280_pressure;Samples;Min_cycle;Max_cycle;Signal;HPM_P1;HPM_P2
2022/10/09 00:01:51;;;;;;;15.13;9.20;;;8.60;47.90;;;;;;7370760;19;20513;-67
2022/10/09 00:04:20;;;;;;;12.23;9.90;;;8.60;48.30;;;;;;7374202;19;20466;-67
2022/10/09 00:06:50;;;;;;;12.25;9.75;;;8.60;48.40;;;;;;7392924;19;20406;-66
2022/10/09 00:09:23;;;;;;;16.58;10.30;;;8.60;48.60;;;;;;7371744;19;20078;-66
2022/10/09 00:11:52;;;;;;;12.98;9.57;;;8.70;49.00;;;;;;7370478;19;20021;-66
2022/10/09 00:14:22;;;;;;;14.18;9.60;;;8.70;49.00;;;;;;7371189;19;20007;-66
2022/10/09 00:16:52;;;;;;;14.20;9.73;;;8.70;48.60;;;;;;7370181;19;20015;-66
2022/10/09 00:19:22;;;;;;;15.27;9.35;;;8.70;48.60;;;;;;7372868;19;20018;-66
2022/10/09 00:21:51;;;;;;;15.43;8.95;;;8.70;48.90;;;;;;7393410;19;20014;-66
2022/10/09 00:24:24;;;;;;;13.82;9.32;;;8.70;49.00;;;;;;7373122;19;20478;-67
2022/10/09 00:26:53;;;;;;;13.52;9.07;;;8.70;49.30;;;;;;7368203;19;20014;-66
2022/10/09 00:29:23;;;;;;;12.23;8.77;;;8.80;49.40;;;;;;7370481;19;20030;-66
2022/10/09 00:31:53;;;;;;;16.23;9.57;;;8.70;49.40;;;;;;7371324;19;20011;-66
2022/10/09 00:34:23;;;;;;;13.70;8.20;;;8.60;49.00;;;;;;7372544;19;20014;-67
2022/10/09 00:36:52;;;;;;;13.00;8.38;;;8.60;49.10;;;;;;7392371;19;20014;-66
2022/10/09 00:39:25;;;;;;;12.90;8.68;;;8.60;48.90;;;;;;7369818;19;20010;-66
2022/10/09 00:41:54;;;;;;;11.68;8.70;;;8.60;49.20;;;;;;7370015;19;20029;-66
2022/10/09 00:44:50;;;;;;;13.70;8.05;;;8.60;49.20;;;;;;7370505;19;20006;-66
2022/10/09 00:47:25;;;;;;;11.57;8.23;;;8.70;49.30;;;;;;7370078;19;20017;-66
2022/10/09 00:49:58;;;;;;;15.27;9.38;;;8.60;49.10;;;;;;7369787;19;20451;-66
2022/10/09 00:52:28;;;;;;;19.30;8.23;;;8.50;49.00;;;;;;7370842;19;20010;-67
2022/10/09 00:55:03;;;;;;;14.07;9.13;;;8.50;49.10;;;;;;7393109;19;20095;-66
2022/10/09 00:57:34;;;;;;;12.18;9.23;;;8.40;49.00;;;;;;7369111;19;20788;-66
2022/10/09 01:00:09;;;;;;;14.85;9.30;;;8.50;49.10;;;;;;7369655;19;20034;-66
2022/10/09 01:02:39;;;;;;;;;;;8.40;48.60;;;;;;7370663;19;20493;-66
2022/10/09 01:05:11;;;;;;;14.55;9.05;;;8.40;48.80;;;;;;7371288;19;19915;-66
2022/10/09 01:07:47;;;;;;;12.25;8.65;;;8.30;48.70;;;;;;7368187;19;20025;-66
2022/10/09 01:10:29;;;;;;;13.55;9.15;;;8.30;48.60;;;;;;7370078;19;20482;-66
2022/10/09 01:13:08;;;;;;;13.52;9.15;;;8.30;48.80;;;;;;7393226;19;20477;-66
2022/10/09 01:15:45;;;;;;;12.38;9.35;;;8.20;48.90;;;;;;7369305;19;20615;-66
2022/10/09 01:18:24;;;;;;;15.43;8.82;;;8.20;48.90;;;;;;7369670;19;20010;-66
2022/10/09 01:20:56;;;;;;;12.32;9.68;;;8.10;49.00;;;;;;7369176;19;20081;-65
2022/10/09 01:23:54;;;;;;;14.23;10.13;;;8.20;49.20;;;;;;7368857;19;20013;-67
2022/10/09 01:27:01;;;;;;;13.30;9.23;;;8.20;49.50;;;;;;7368350;19;20006;-67
2022/10/09 01:29:37;;;;;;;14.02;10.05;;;8.10;48.90;;;;;;7368327;19;20015;-67
2022/10/09 01:32:09;;;;;;;10.90;9.07;;;8.10;49.00;;;;;;7369923;19;20010;-67
2022/10/09 01:34:41;;;;;;;12.80;9.30;;;8.00;48.90;;;;;;7369502;19;20079;-67
2022/10/09 01:37:12;;;;;;;12.13;8.70;;;8.00;49.40;;;;;;7391117;19;20078;-66
2022/10/09 01:39:44;;;;;;;16.77;9.25;;;8.00;49.50;;;;;;7369088;19;20034;-66
2022/10/09 01:42:18;;;;;;;17.02;8.73;;;8.00;49.10;;;;;;7369414;19;20101;-66
2022/10/09 01:44:47;;;;;;;16.30;9.07;;;8.00;49.30;;;;;;7369100;19;20093;-66
2022/10/09 01:47:20;;;;;;;13.80;9.07;;;8.00;49.40;;;;;;7369497;19;20003;-66
2022/10/09 01:49:56;;;;;;;13.98;8.85;;;8.00;48.80;;;;;;7365698;19;20101;-66
2022/10/09 01:52:36;;;;;;;13.90;8.57;;;7.90;48.90;;;;;;7368428;19;20081;-66
2022/10/09 01:55:22;;;;;;;13.85;8.18;;;7.90;48.70;;;;;;7392003;19;20014;-66
2022/10/09 01:58:01;;;;;;;13.90;8.60;;;7.90;48.70;;;;;;7367921;19;20093;-66
2022/10/09 02:00:35;;;;;;;12.85;9.07;;;7.80;48.60;;;;;;7367516;19;20030;-67
2022/10/09 02:03:08;;;;;;;14.20;8.18;;;7.80;48.70;;;;;;7369209;19;20433;-66
2022/10/09 02:05:40;;;;;;;12.40;8.37;;;7.80;48.70;;;;;;7369266;19;20003;-66
2022/10/09 02:08:11;;;;;;;11.95;8.25;;;7.80;48.80;;;;;;7368959;19;20134;-66
2022/10/09 02:10:43;;;;;;;12.63;8.63;;;7.90;49.40;;;;;;7366923;19;20014;-66
2022/10/09 02:13:16;;;;;;;13.18;9.25;;;7.90;49.20;;;;;;7376268;19;20123;-66
2022/10/09 02:15:49;;;;;;;11.18;8.30;;;7.90;48.80;;;;;;7389134;19;20380;-67
2022/10/09 02:18:24;;;;;;;11.73;8.82;;;7.90;48.70;;;;;;7367645;19;20077;-67
2022/10/09 02:21:01;;;;;;;10.60;8.27;;;7.80;48.60;;;;;;7364339;19;20034;-67
2022/10/09 02:23:31;;;;;;;10.63;7.80;;;7.70;48.50;;;;;;7368006;19;20070;-67
2022/10/09 02:26:01;;;;;;;10.25;8.00;;;7.80;48.70;;;;;;7368211;19;20014;-67
2022/10/09 02:28:34;;;;;;;10.50;7.78;;;7.80;48.70;;;;;;7368548;19;20011;-66
2022/10/09 02:31:12;;;;;;;12.07;8.35;;;7.70;48.50;;;;;;7388510;19;20043;-66
2022/10/09 02:33:42;;;;;;;10.55;8.13;;;7.60;48.40;;;;;;7368119;19;20478;-66
2022/10/09 02:36:13;;;;;;;13.10;8.15;;;7.60;48.40;;;;;;7367444;19;20022;-67
2022/10/09 02:38:43;;;;;;;12.55;7.82;;;7.60;48.40;;;;;;7367258;19;20010;-67
2022/10/09 02:41:13;;;;;;;11.63;8.18;;;7.60;48.50;;;;;;7366905;19;20012;-66
2022/10/09 02:43:45;;;;;;;12.32;7.88;;;7.60;48.50;;;;;;7368868;19;20819;-66
2022/10/09 02:46:15;;;;;;;13.50;8.75;;;7.60;48.40;;;;;;7390459;19;20015;-67
2022/10/09 02:48:45;;;;;;;14.65;8.25;;;7.60;48.70;;;;;;7368205;19;20101;-67
2022/10/09 02:51:16;;;;;;;14.82;7.63;;;7.60;49.10;;;;;;7366018;19;20026;-67
2022/10/09 02:53:45;;;;;;;13.68;8.27;;;7.60;49.40;;;;;;7367956;19;20715;-67
2022/10/09 02:56:16;;;;;;;14.23;7.82;;;7.60;49.60;;;;;;7367278;19;20023;-67
2022/10/09 02:58:49;;;;;;;14.30;8.45;;;7.50;49.00;;;;;;7367556;19;20037;-67
2022/10/09 03:01:19;;;;;;;9.73;8.48;;;7.50;49.30;;;;;;7389226;19;20078;-66
2022/10/09 03:03:49;;;;;;;13.68;8.23;;;7.50;49.20;;;;;;7375723;19;20094;-67
2022/10/09 03:06:20;;;;;;;11.23;7.80;;;7.50;49.30;;;;;;7374162;19;20011;-66
2022/10/09 03:08:52;;;;;;;14.35;8.07;;;7.40;50.00;;;;;;7374170;19;20014;-66
2022/10/09 03:11:24;;;;;;;10.98;8.00;;;7.40;49.10;;;;;;7373334;19;20030;-67
2022/10/09 03:13:57;;;;;;;14.77;8.73;;;7.40;49.50;;;;;;7374808;19;20018;-67
2022/10/09 03:16:28;;;;;;;10.70;8.38;;;7.40;50.30;;;;;;7371803;19;20010;-67
2022/10/09 03:18:58;;;;;;;15.95;8.95;;;7.40;50.00;;;;;;7396786;19;20489;-66
2022/10/09 03:21:29;;;;;;;12.55;8.85;;;7.40;50.00;;;;;;7372823;19;20007;-66
2022/10/09 03:23:59;;;;;;;11.25;8.30;;;7.30;49.80;;;;;;7374705;19;20014;-66
2022/10/09 03:26:29;;;;;;;13.35;8.60;;;7.30;50.00;;;;;;7372173;19;20730;-67
2022/10/09 03:29:02;;;;;;;11.20;8.13;;;7.30;50.00;;;;;;7374191;19;20010;-67
2022/10/09 03:31:31;;;;;;;10.70;8.85;;;7.30;50.30;;;;;;7372710;19;20014;-66
2022/10/09 03:34:21;;;;;;;16.80;9.10;;;7.20;50.10;;;;;;7377851;19;20029;-67
2022/10/09 03:36:51;;;;;;;13.63;9.38;;;7.20;50.40;;;;;;7393537;19;20018;-68
2022/10/09 03:39:21;;;;;;;14.32;8.40;;;7.30;50.40;;;;;;7372494;19;20010;-68
2022/10/09 03:41:50;;;;;;;10.60;8.23;;;7.20;50.20;;;;;;7373312;19;19998;-66
2022/10/09 03:44:23;;;;;;;13.10;9.20;;;7.10;49.90;;;;;;7374056;19;20010;-66
2022/10/09 03:46:53;;;;;;;16.48;9.43;;;7.00;50.10;;;;;;7373049;19;20010;-66
2022/10/09 03:49:23;;;;;;;13.02;9.20;;;7.00;50.20;;;;;;7373505;19;20031;-66
2022/10/09 03:51:53;;;;;;;14.43;8.80;;;6.90;50.40;;;;;;7395650;19;20011;-67
2022/10/09 03:54:23;;;;;;;11.27;8.57;;;6.90;50.40;;;;;;7374098;19;20002;-66
2022/10/09 03:56:53;;;;;;;11.95;8.32;;;6.80;50.10;;;;;;7370538;19;20090;-65
2022/10/09 03:59:25;;;;;;;13.43;9.30;;;6.80;50.80;;;;;;7372068;19;20014;-66
2022/10/09 04:01:55;;;;;;;12.27;8.80;;;6.90;50.80;;;;;;7373990;19;20018;-66
2022/10/09 04:04:24;;;;;;;12.68;9.15;;;6.80;50.00;;;;;;7373126;19;20470;-66
2022/10/09 04:06:54;;;;;;;15.90;10.75;;;6.80;49.90;;;;;;7392917;19;20046;-66
2022/10/09 04:09:24;;;;;;;16.65;10.55;;;6.80;50.30;;;;;;7371169;19;20526;-66
2022/10/09 04:11:54;;;;;;;15.45;10.23;;;6.70;50.00;;;;;;7370919;19;20015;-66
2022/10/09 04:14:26;;;;;;;14.18;10.05;;;6.60;49.80;;;;;;7371171;19;20024;-66
2022/10/09 04:16:56;;;;;;;16.70;10.00;;;6.60;49.70;;;;;;7371049;19;20010;-66
2022/10/09 04:19:26;;;;;;;17.10;9.65;;;6.60;49.80;;;;;;7371349;19;20011;-67
2022/10/09 04:21:56;;;;;;;15.18;10.18;;;6.60;49.30;;;;;;7395094;19;20023;-66
2022/10/09 04:24:25;;;;;;;20.77;9.55;;;6.60;48.50;;;;;;7372473;19;20021;-66
2022/10/09 04:26:55;;;;;;;12.75;9.48;;;6.50;48.40;;;;;;7369588;19;20038;-66
2022/10/09 04:29:28;;;;;;;12.43;9.35;;;6.50;48.30;;;;;;7369831;19;20358;-66
2022/10/09 04:31:57;;;;;;;18.33;9.88;;;6.40;47.50;;;;;;7372090;19;20031;-66
2022/10/09 04:34:27;;;;;;;14.25;8.88;;;6.40;48.20;;;;;;7371678;19;20077;-66
2022/10/09 04:36:57;;;;;;;16.90;9.07;;;6.40;47.50;;;;;;7392321;19;20018;-67
2022/10/09 04:39:27;;;;;;;11.95;8.77;;;6.40;47.60;;;;;;7370396;19;20493;-67
2022/10/09 04:41:57;;;;;;;14.90;8.68;;;6.30;47.40;;;;;;7371550;19;20014;-67
2022/10/09 04:44:29;;;;;;;11.13;8.80;;;6.30;48.00;;;;;;7371366;19;20034;-66
2022/10/09 04:46:59;;;;;;;13.60;9.05;;;6.40;48.40;;;;;;7370870;19;20034;-65
2022/10/09 04:49:28;;;;;;;11.85;9.00;;;6.30;47.50;;;;;;7370520;19;20456;-66
2022/10/09 04:51:59;;;;;;;12.77;9.52;;;6.20;47.50;;;;;;7393767;19;20017;-66
2022/10/09 04:54:29;;;;;;;11.40;8.63;;;6.10;47.40;;;;;;7371531;19;20006;-66
2022/10/09 04:56:59;;;;;;;13.10;9.30;;;6.10;48.10;;;;;;7368893;19;20007;-66
2022/10/09 04:59:31;;;;;;;17.58;10.10;;;6.10;47.30;;;;;;7369993;19;20509;-66
2022/10/09 05:02:01;;;;;;;14.88;10.60;;;6.20;48.50;;;;;;7371257;19;20018;-67
2022/10/09 05:04:31;;;;;;;28.98;11.85;;;6.30;48.60;;;;;;7371593;19;20018;-67
2022/10/09 05:07:01;;;;;;;13.75;10.55;;;6.30;48.70;;;;;;7390994;19;20011;-67
2022/10/09 05:09:31;;;;;;;14.43;10.10;;;6.20;49.10;;;;;;7368755;19;20363;-66
2022/10/09 05:12:01;;;;;;;12.15;9.98;;;6.10;48.50;;;;;;7370072;19;20014;-66
2022/10/09 05:14:33;;;;;;;12.85;9.45;;;6.10;49.10;;;;;;7371117;19;20506;-67
2022/10/09 05:17:04;;;;;;;13.20;9.88;;;6.10;48.60;;;;;;7369123;19;20382;-65
2022/10/09 05:19:52;;;;;;;12.77;9.15;;;6.00;48.00;;;;;;7369272;19;20048;-66
2022/10/09 05:22:21;;;;;;;10.57;9.15;;;6.00;47.90;;;;;;7371188;19;20486;-68
2022/10/09 05:24:51;;;;;;;12.38;9.63;;;5.90;48.00;;;;;;7392855;19;20482;-66
2022/10/09 05:27:21;;;;;;;16.25;9.85;;;5.90;48.40;;;;;;7367927;19;20352;-66
2022/10/09 05:29:53;;;;;;;13.55;9.80;;;5.90;48.30;;;;;;7367313;19;20011;-65
2022/10/09 05:32:23;;;;;;;11.80;9.40;;;5.80;48.20;;;;;;7370651;19;20015;-67
2022/10/09 05:34:53;;;;;;;14.48;9.65;;;5.80;48.10;;;;;;7370065;19;20350;-66
2022/10/09 05:37:22;;;;;;;21.63;10.82;;;5.80;48.60;;;;;;7368228;19;20010;-67
2022/10/09 05:39:52;;;;;;;13.82;9.48;;;5.90;49.60;;;;;;7390737;19;20677;-66
2022/10/09 05:42:22;;;;;;;97.20;13.35;;;5.80;49.60;;;;;;7369649;19;20002;-66
2022/10/09 05:44:54;;;;;;;51.53;11.85;;;5.70;49.70;;;;;;7369759;19;20010;-66
2022/10/09 05:47:24;;;;;;;16.10;10.10;;;5.70;50.10;;;;;;7367592;19;20328;-66
2022/10/09 05:49:54;;;;;;;17.92;9.18;;;5.80;50.80;;;;;;7368048;19;20010;-66
2022/10/09 05:52:24;;;;;;;12.68;9.23;;;5.70;50.80;;;;;;7370117;19;20035;-66
2022/10/09 05:54:55;;;;;;;9.77;7.75;;;5.70;50.80;;;;;;7392042;19;20014;-65
2022/10/09 05:57:25;;;;;;;9.25;7.43;;;5.60;50.80;;;;;;7366873;19;20376;-66
2022/10/09 05:59:57;;;;;;;8.90;7.88;;;5.70;50.90;;;;;;7368132;19;20018;-65
2022/10/09 06:02:27;;;;;;;9.80;7.57;;;5.60;50.80;;;;;;7369755;19;20053;-66
2022/10/09 06:04:57;;;;;;;9.20;7.35;;;5.70;51.30;;;;;;7367934;19;20011;-66
2022/10/09 06:07:27;;;;;;;11.50;7.68;;;5.80;51.30;;;;;;7367549;19;20030;-66
2022/10/09 06:09:56;;;;;;;9.77;7.43;;;5.80;51.10;;;;;;7389803;19;20014;-65
2022/10/09 06:12:26;;;;;;;11.98;7.72;;;5.90;51.60;;;;;;7368808;19;20014;-66
2022/10/09 06:14:59;;;;;;;8.15;7.20;;;6.10;51.70;;;;;;7368705;19;20022;-66
2022/10/09 06:17:28;;;;;;;12.18;8.48;;;6.10;51.40;;;;;;7366407;19;20038;-67
2022/10/09 06:19:58;;;;;;;8.90;7.07;;;6.20;51.30;;;;;;7367141;19;20010;-65
2022/10/09 06:22:28;;;;;;;9.70;8.00;;;6.30;50.90;;;;;;7368556;19;20006;-67
2022/10/09 06:24:58;;;;;;;9.18;7.78;;;6.30;49.80;;;;;;7391726;19;20014;-66
2022/10/09 06:27:27;;;;;;;12.05;7.60;;;6.50;50.00;;;;;;7365596;19;20463;-67
2022/10/09 06:30:00;;;;;;;8.98;6.93;;;6.50;49.10;;;;;;7366029;19;19998;-67
2022/10/09 06:32:30;;;;;;;10.27;7.22;;;6.60;48.30;;;;;;7368090;19;20758;-66
2022/10/09 06:34:59;;;;;;;9.27;6.95;;;6.70;47.20;;;;;;7368705;19;20347;-66
2022/10/09 06:37:29;;;;;;;7.05;5.93;;;6.60;44.50;;;;;;7374282;19;20070;-66
2022/10/09 06:39:59;;;;;;;7.03;5.90;;;6.80;45.80;;;;;;7402606;19;20498;-67
2022/10/09 06:42:29;;;;;;;6.93;6.20;;;6.80;44.20;;;;;;7382002;19;20727;-67
2022/10/09 06:45:01;;;;;;;7.32;6.10;;;6.90;42.80;;;;;;7381711;19;20003;-66
2022/10/09 06:47:31;;;;;;;6.78;5.85;;;7.00;43.00;;;;;;7380108;19;20037;-66
2022/10/09 06:50:00;;;;;;;7.43;5.55;;;7.10;42.70;;;;;;7380157;19;20015;-66
2022/10/09 06:52:30;;;;;;;7.30;5.75;;;7.20;42.40;;;;;;7382077;19;20332;-66
2022/10/09 06:55:00;;;;;;;7.28;6.03;;;7.40;41.50;;;;;;7403846;19;20074;-67
2022/10/09 06:57:30;;;;;;;11.65;6.28;;;7.50;40.10;;;;;;7378708;19;20011;-66
2022/10/09 07:00:03;;;;;;;9.88;7.00;;;7.40;39.50;;;;;;7379391;19;20006;-66
2022/10/09 07:02:33;;;;;;;7.13;6.25;;;7.60;38.50;;;;;;7380253;19;20006;-66
2022/10/09 07:05:03;;;;;;;6.65;5.78;;;7.80;37.50;;;;;;7381788;19;20010;-66
2022/10/09 07:07:33;;;;;;;7.03;6.00;;;7.80;36.40;;;;;;7379903;19;20042;-66
2022/10/09 07:10:03;;;;;;;9.50;6.50;;;7.90;35.10;;;;;;7402287;19;20054;-67
2022/10/09 07:12:35;;;;;;;11.43;6.68;;;8.10;34.80;;;;;;7380955;19;20511;-66
2022/10/09 07:15:09;;;;;;;7.25;6.13;;;8.10;33.10;;;;;;7380446;19;20014;-66
2022/10/09 07:17:39;;;;;;;7.78;5.82;;;8.20;32.30;;;;;;7377989;19;20444;-66
2022/10/09 07:20:09;;;;;;;9.27;6.20;;;8.30;30.40;;;;;;7380239;19;20014;-66
2022/10/09 07:22:41;;;;;;;8.63;6.13;;;8.50;29.80;;;;;;7379438;19;20010;-66
2022/10/09 07:25:12;;;;;;;9.15;5.97;;;8.50;29.50;;;;;;7403468;19;20467;-66
2022/10/09 07:27:42;;;;;;;8.38;5.55;;;8.60;28.60;;;;;;7377504;19;20022;-66
2022/10/09 07:30:14;;;;;;;6.80;5.65;;;8.70;27.10;;;;;;7378168;19;20014;-66
2022/10/09 07:32:44;;;;;;;8.27;5.80;;;8.80;26.90;;;;;;7379915;19;20003;-66
2022/10/09 07:35:15;;;;;;;8.75;6.03;;;8.90;26.60;;;;;;7380298;19;20425;-66
2022/10/09 07:37:44;;;;;;;13.25;6.60;;;9.00;25.80;;;;;;7378232;19;20806;-66
2022/10/09 07:40:14;;;;;;;8.77;5.75;;;9.10;25.00;;;;;;7402272;19;20016;-66
2022/10/09 07:42:44;;;;;;;7.22;5.75;;;9.20;24.60;;;;;;7380852;19;20010;-66
2022/10/09 07:45:17;;;;;;;10.13;6.50;;;9.20;23.20;;;;;;7380393;19;20014;-67
2022/10/09 07:47:47;;;;;;;11.13;6.47;;;9.30;23.50;;;;;;7376407;19;20017;-66
2022/10/09 07:50:17;;;;;;;10.02;6.32;;;9.40;22.60;;;;;;7370878;19;20400;-67
2022/10/09 07:52:46;;;;;;;9.90;6.35;;;9.60;22.60;;;;;;7373533;19;20515;-67
2022/10/09 07:55:17;;;;;;;7.38;5.82;;;9.70;22.60;;;;;;7396105;19;20496;-67
2022/10/09 07:57:47;;;;;;;12.13;6.75;;;9.80;21.90;;;;;;7369657;19;20014;-67
2022/10/09 08:00:19;;;;;;;10.10;6.60;;;9.80;21.10;;;;;;7371136;19;20013;-67
2022/10/09 08:02:49;;;;;;;8.85;6.47;;;9.90;20.00;;;;;;7372517;19;20013;-66
2022/10/09 08:05:19;;;;;;;11.23;6.53;;;10.00;18.10;;;;;;7373169;19;20007;-66
2022/10/09 08:07:49;;;;;;;10.25;6.30;;;10.10;17.50;;;;;;7370407;19;20018;-66
2022/10/09 08:10:19;;;;;;;11.27;6.25;;;10.30;16.70;;;;;;7393095;19;20042;-67
2022/10/09 08:12:49;;;;;;;10.32;6.05;;;10.40;16.20;;;;;;7372426;19;20038;-67
2022/10/09 08:15:22;;;;;;;8.07;5.70;;;10.60;14.90;;;;;;7371849;19;20029;-67
2022/10/09 08:17:53;;;;;;;11.18;6.57;;;10.70;13.30;;;;;;7370426;19;20006;-66
2022/10/09 08:20:24;;;;;;;11.45;6.47;;;10.80;13.10;;;;;;7371427;19;20022;-67
2022/10/09 08:22:53;;;;;;;9.90;5.60;;;10.80;11.90;;;;;;7372103;19;20081;-66
2022/10/09 08:25:23;;;;;;;8.88;6.10;;;10.90;10.60;;;;;;7372985;19;20030;-67
2022/10/09 08:27:54;;;;;;;7.63;5.65;;;11.00;8.70;;;;;;7391547;19;20362;-66
2022/10/09 08:30:26;;;;;;;9.52;5.22;;;11.20;8.60;;;;;;7369748;19;20021;-66
2022/10/09 08:32:57;;;;;;;8.38;5.30;;;11.20;5.20;;;;;;7371624;19;20508;-67
2022/10/09 08:35:26;;;;;;;10.27;5.68;;;11.30;5.70;;;;;;7372519;19;20006;-67
2022/10/09 08:38:03;;;;;;;10.95;5.72;;;11.50;6.20;;;;;;7368475;19;20380;-66
2022/10/09 08:40:39;;;;;;;8.80;5.15;;;11.60;5.10;;;;;;7366420;19;20010;-66
2022/10/09 08:43:12;;;;;;;7.38;5.03;;;11.50;3.50;;;;;;7393424;19;20025;-67
2022/10/09 08:45:47;;;;;;;9.30;5.40;;;11.60;5.50;;;;;;7370373;19;20014;-67
2022/10/09 08:48:21;;;;;;;6.32;4.90;;;11.80;3.30;;;;;;7371315;19;20011;-67
2022/10/09 08:50:54;;;;;;;9.32;5.55;;;11.90;3.90;;;;;;7369195;19;20015;-66
2022/10/09 08:53:38;;;;;;;8.88;4.85;;;12.00;3.10;;;;;;7370039;19;20374;-67
2022/10/09 08:56:14;;;;;;;7.10;5.18;;;12.10;1.00;;;;;;7370319;19;20011;-67
2022/10/09 08:58:45;;;;;;;11.50;5.05;;;12.20;1.10;;;;;;7370207;19;20043;-66
2022/10/09 09:01:27;;;;;;;8.32;4.72;;;12.40;1.00;;;;;;7391373;19;20383;-67
2022/10/09 09:04:26;;;;;;;8.88;5.05;;;12.50;1.00;;;;;;7371173;19;20030;-67
2022/10/09 09:07:04;;;;;;;6.47;4.45;;;12.60;1.00;;;;;;7368534;19;20483;-66
2022/10/09 09:09:53;;;;;;;7.25;4.13;;;12.70;1.00;;;;;;7368805;19;20026;-67
2022/10/09 09:12:33;;;;;;;5.55;3.97;;;13.00;1.00;;;;;;7371199;19;20010;-67
2022/10/09 09:15:11;;;;;;;5.78;4.10;;;13.10;1.00;;;;;;7370472;19;20518;-67
2022/10/09 09:17:52;;;;;;;7.43;4.00;;;13.20;1.00;;;;;;7368004;19;20014;-67
2022/10/09 09:20:27;;;;;;;7.05;3.72;;;13.20;1.00;;;;;;7368251;19;20046;-67
2022/10/09 09:22:58;;;;;;;7.50;3.47;;;13.40;1.00;;;;;;7370371;19;20034;-66
2022/10/09 09:25:32;;;;;;;6.80;3.22;;;13.40;1.00;;;;;;7370086;19;20007;-67
2022/10/09 09:28:15;;;;;;;4.50;3.30;;;13.30;1.00;;;;;;7390098;19;20023;-66
2022/10/09 09:30:50;;;;;;;6.68;3.83;;;13.40;1.00;;;;;;7368052;19;20014;-67
2022/10/09 09:33:27;;;;;;;7.75;3.80;;;13.50;1.00;;;;;;7369410;19;20015;-69
2022/10/09 09:36:10;;;;;;;5.60;3.10;;;13.80;1.00;;;;;;7369973;19;20003;-66
2022/10/09 09:38:40;;;;;;;4.10;3.20;;;13.80;1.00;;;;;;7369316;19;20038;-67
2022/10/09 09:41:30;;;;;;;5.47;3.17;;;13.80;1.00;;;;;;7368519;19;20010;-67
2022/10/09 09:43:59;;;;;;;3.67;3.00;;;14.00;1.00;;;;;;7369797;19;20011;-67
2022/10/09 09:46:33;;;;;;;6.00;3.33;;;14.20;1.00;;;;;;7367658;19;20010;-67
2022/10/09 09:49:17;;;;;;;5.05;2.95;;;14.20;1.00;;;;;;7388912;19;20015;-67
2022/10/09 09:51:48;;;;;;;5.70;3.25;;;14.40;1.00;;;;;;7369329;19;20050;-67
2022/10/09 09:54:21;;;;;;;6.85;3.20;;;14.50;1.00;;;;;;7368963;19;20050;-67
2022/10/09 09:56:53;;;;;;;4.27;2.87;;;14.50;1.00;;;;;;7366537;19;20474;-67
2022/10/09 09:59:43;;;;;;;5.35;2.95;;;14.50;1.00;;;;;;7366599;19;20003;-67
2022/10/09 10:02:16;;;;;;;9.85;4.05;;;14.70;1.00;;;;;;7369513;19;20018;-67
2022/10/09 10:04:55;;;;;;;5.07;2.65;;;14.90;1.00;;;;;;7368705;19;20018;-67
2022/10/09 10:07:32;;;;;;;4.93;2.10;;;15.10;1.00;;;;;;7367103;19;20107;-68
2022/10/09 10:10:08;;;;;;;4.70;2.17;;;14.70;1.00;;;;;;7388642;19;20007;-67
2022/10/09 10:12:42;;;;;;;3.63;2.60;;;14.70;1.00;;;;;;7367079;19;20010;-67
2022/10/09 10:15:21;;;;;;;5.07;2.30;;;14.80;1.00;;;;;;7368408;19;20003;-67
2022/10/09 10:17:59;;;;;;;3.95;2.38;;;14.80;1.00;;;;;;7366999;19;20010;-67
2022/10/09 10:20:34;;;;;;;3.65;2.22;;;15.00;1.00;;;;;;7364763;19;20018;-67
2022/10/09 10:23:03;;;;;;;3.97;2.25;;;15.00;1.00;;;;;;7369381;19;20007;-68
2022/10/09 10:25:35;;;;;;;3.65;1.88;;;15.00;1.00;;;;;;7367428;19;20034;-67
2022/10/09 10:28:12;;;;;;;4.88;1.83;;;15.10;1.00;;;;;;7387434;19;20447;-65
2022/10/09 10:30:43;;;;;;;3.47;2.08;;;15.40;1.00;;;;;;7365581;19;20387;-66
2022/10/09 10:33:20;;;;;;;4.57;2.10;;;15.40;1.00;;;;;;7367850;19;20017;-68
2022/10/09 10:35:55;;;;;;;4.70;1.98;;;15.40;1.00;;;;;;7367804;19;20014;-67
2022/10/09 10:38:26;;;;;;;;;;;15.60;1.00;;;;;;7367984;19;20026;-67
2022/10/09 10:41:04;;;;;;;3.70;1.90;;;15.60;1.00;;;;;;7365263;19;19922;-68
2022/10/09 10:43:42;;;;;;;7.45;2.30;;;15.60;1.00;;;;;;7367968;19;20010;-67
2022/10/09 10:46:18;;;;;;;5.47;3.03;;;15.80;1.00;;;;;;7387572;19;20011;-67
2022/10/09 10:48:50;;;;;;;5.32;2.08;;;15.90;1.00;;;;;;7366411;19;20006;-68
2022/10/09 10:51:41;;;;;;;3.40;1.95;;;15.90;1.00;;;;;;7366772;19;20027;-67
2022/10/09 10:54:25;;;;;;;9.52;1.98;;;15.90;1.00;;;;;;7367334;19;20006;-68
2022/10/09 10:57:04;;;;;;;4.47;2.20;;;15.80;1.00;;;;;;7365223;19;20018;-67
2022/10/09 10:59:40;;;;;;;5.30;2.50;;;16.00;1.00;;;;;;7364516;19;20014;-67
2022/10/09 11:02:46;;;;;;;4.03;1.77;;;16.10;1.00;;;;;;7367663;19;20102;-67
2022/10/09 11:05:25;;;;;;;3.35;2.20;;;15.90;1.00;;;;;;7367143;19;20425;-67
2022/10/09 11:08:14;;;;;;;4.22;1.88;;;16.10;1.00;;;;;;7365394;19;20096;-67
2022/10/09 11:10:55;;;;;;;3.83;2.00;;;16.10;1.00;;;;;;7365497;19;20014;-66
2022/10/09 11:13:31;;;;;;;3.08;1.70;;;16.20;1.00;;;;;;7366443;19;20435;-67
2022/10/09 11:16:17;;;;;;;2.38;1.50;;;16.00;1.00;;;;;;7388154;19;20018;-66
2022/10/09 11:19:04;;;;;;;2.45;1.70;;;15.90;1.00;;;;;;7365419;19;20023;-66
2022/10/09 11:21:46;;;;;;;3.75;2.17;;;16.10;1.00;;;;;;7363423;19;19999;-67
2022/10/09 11:24:51;;;;;;;4.57;1.70;;;16.30;1.00;;;;;;7373419;19;20590;-67
2022/10/09 11:27:24;;;;;;;1.60;1.50;;;16.30;1.00;;;;;;7370843;19;20007;-68
2022/10/09 11:29:58;;;;;;;4.03;1.93;;;16.50;1.00;;;;;;7371103;19;20014;-68
2022/10/09 11:32:34;;;;;;;6.22;1.98;;;16.50;1.00;;;;;;7372763;19;20015;-67
2022/10/09 11:35:08;;;;;;;3.88;1.85;;;16.50;1.00;;;;;;7373589;19;20034;-67
2022/10/09 11:37:42;;;;;;;2.63;1.60;;;16.60;1.00;;;;;;7370362;19;20003;-67
2022/10/09 11:40:19;;;;;;;1.70;1.33;;;16.70;1.00;;;;;;7393162;19;20359;-67
2022/10/09 11:42:57;;;;;;;2.13;1.50;;;16.90;1.00;;;;;;7369469;19;20011;-65
2022/10/09 11:45:31;;;;;;;2.88;1.60;;;16.70;1.00;;;;;;7372623;19;20007;-66
2022/10/09 11:48:10;;;;;;;4.00;1.33;;;16.80;1.00;;;;;;7371655;19;20015;-67
2022/10/09 11:50:50;;;;;;;1.77;1.20;;;16.80;1.00;;;;;;7370512;19;20093;-67
2022/10/09 11:53:22;;;;;;;4.72;1.52;;;16.90;1.00;;;;;;7373566;19;20010;-68
2022/10/09 11:56:03;;;;;;;5.57;1.60;;;17.00;1.00;;;;;;7371006;19;20014;-66
2022/10/09 11:58:33;;;;;;;3.30;1.83;;;17.10;1.00;;;;;;7371735;19;20011;-66
2022/10/09 12:01:15;;;;;;;5.43;1.50;;;17.20;1.00;;;;;;7392880;19;20486;-67
2022/10/09 12:03:45;;;;;;;3.95;1.50;;;17.30;1.00;;;;;;7373151;19;20502;-67
2022/10/09 12:06:19;;;;;;;3.67;1.45;;;17.10;1.00;;;;;;7371171;19;20454;-68
2022/10/09 12:08:57;;;;;;;3.92;1.80;;;17.20;1.00;;;;;;7369036;19;20509;-67
2022/10/09 12:11:31;;;;;;;5.03;2.72;;;17.20;1.00;;;;;;7371808;19;20462;-67
2022/10/09 12:14:03;;;;;;;3.33;1.50;;;17.20;1.00;;;;;;7371887;19;20014;-67
2022/10/09 12:16:42;;;;;;;2.60;1.50;;;17.40;1.00;;;;;;7370385;19;20046;-67
2022/10/09 12:19:25;;;;;;;5.47;1.55;;;17.30;1.00;;;;;;7391645;19;20002;-67
2022/10/09 12:22:02;;;;;;;5.00;1.48;;;17.30;1.00;;;;;;7370775;19;20031;-67
2022/10/09 12:24:38;;;;;;;2.70;1.27;;;17.30;1.00;;;;;;7371830;19;20002;-67
2022/10/09 12:27:33;;;;;;;5.28;1.42;;;17.10;1.00;;;;;;7368721;19;20491;-67
2022/10/09 12:30:09;;;;;;;2.92;1.35;;;17.10;1.00;;;;;;7367395;19;20018;-68
2022/10/09 12:32:43;;;;;;;3.35;1.65;;;17.00;1.00;;;;;;7370703;19;20038;-67
2022/10/09 12:35:21;;;;;;;4.10;1.50;;;17.10;1.00;;;;;;7369727;19;20006;-66
2022/10/09 12:37:51;;;;;;;3.35;1.63;;;17.10;1.00;;;;;;7368191;19;20019;-67
2022/10/09 12:40:24;;;;;;;4.25;1.52;;;17.10;1.00;;;;;;7375236;19;20006;-68
2022/10/09 12:42:59;;;;;;;4.00;1.42;;;17.20;1.00;;;;;;7393049;19;20011;-67
2022/10/09 12:45:31;;;;;;;10.40;2.35;;;17.20;1.00;;;;;;7369116;19;20031;-68
2022/10/09 12:48:11;;;;;;;2.38;1.20;;;17.30;1.00;;;;;;7369172;19;20010;-68
2022/10/09 12:50:41;;;;;;;4.43;1.35;;;17.20;1.00;;;;;;7367063;19;20011;-67
2022/10/09 12:53:16;;;;;;;3.65;1.70;;;17.20;1.00;;;;;;7371013;19;20118;-66
2022/10/09 12:55:51;;;;;;;3.03;1.77;;;17.20;1.00;;;;;;7370448;19;20042;-68
2022/10/09 12:58:26;;;;;;;3.80;1.30;;;17.30;1.00;;;;;;7377264;19;20444;-67
2022/10/09 13:00:58;;;;;;;5.32;1.65;;;17.30;1.00;;;;;;7390654;19;20477;-67
2022/10/09 13:03:36;;;;;;;2.03;1.42;;;17.20;1.00;;;;;;7371430;19;20384;-68
2022/10/09 13:06:09;;;;;;;6.03;1.70;;;17.20;1.00;;;;;;7369424;19;20014;-67
2022/10/09 13:08:40;;;;;;;4.45;1.60;;;17.30;1.00;;;;;;7367800;19;20037;-67
2022/10/09 13:11:12;;;;;;;3.45;1.55;;;17.30;1.00;;;;;;7368856;19;20502;-67
2022/10/09 13:13:45;;;;;;;7.25;2.40;;;17.30;1.00;;;;;;7369865;19;20583;-68
2022/10/09 13:16:14;;;;;;;4.20;1.67;;;17.20;1.00;;;;;;7391444;19;20021;-67
2022/10/09 13:18:45;;;;;;;3.63;1.80;;;17.20;1.00;;;;;;7368189;19;20014;-67
2022/10/09 13:21:25;;;;;;;5.32;1.70;;;17.40;1.00;;;;;;7368135;19;20085;-67
2022/10/09 13:24:09;;;;;;;3.45;1.40;;;17.30;1.00;;;;;;7368437;19;20654;-67